Time;durP1;ratioP1;P1;durP2;ratioP2;P2;SDS_P1;SDS_P2;PMS_P1;PMS_P2;Temp;Humidity;BMP_temperature;BMP_pressure;BME280_temperature;BME280_humidity;BME280_pressure;Samples;Min_cycle;Max_cycle;Signal;HPM_P1;HPM_P2
2022/09/02 08:00:26;;;;;;;5.85;3.00;;;;;;;22.13;40.97;101633.16;5646626;22;11152186;-76
2022/09/02 08:02:55;;;;;;;7.60;3.47;;;;;;;21.90;41.97;101621.22;6036490;23;20495;-76
2022/09/02 08:05:22;;;;;;;6.00;2.90;;;;;;;22.04;41.56;101620.06;6067006;23;20049;-76
2022/09/02 08:07:47;;;;;;;6.85;3.13;;;;;;;21.83;41.67;101623.16;5959783;23;20050;-73
2022/09/02 08:10:22;;;;;;;9.70;3.33;;;;;;;22.03;41.44;101620.09;6028179;23;20806;-74
2022/09/02 08:12:50;;;;;;;6.53;3.22;;;;;;;21.96;41.46;101618.47;6053383;23;20066;-78
2022/09/02 08:15:15;;;;;;;7.50;3.20;;;;;;;22.13;41.62;101624.31;5978197;23;20019;-73
2022/09/02 08:17:56;;;;;;;5.93;3.30;;;;;;;22.38;41.28;101616.66;6012533;23;20017;-75
2022/09/02 08:20:22;;;;;;;9.30;3.50;;;;;;;22.11;41.23;101616.38;5927461;23;20034;-73
2022/09/02 08:22:51;;;;;;;6.20;3.35;;;;;;;22.18;40.92;101615.34;5995465;23;20869;-74
2022/09/02 08:25:17;;;;;;;8.20;3.85;;;;;;;21.79;40.97;101621.47;5996972;23;20183;-75
2022/09/02 08:27:43;;;;;;;8.48;3.60;;;;;;;21.83;41.63;101621.34;6008124;23;20015;-71
2022/09/02 08:30:09;;;;;;;10.23;3.50;;;;;;;22.05;41.51;101612.97;6027735;23;20433;-72
2022/09/02 08:32:37;;;;;;;5.18;3.50;;;;;;;22.36;41.33;101619.34;6021604;23;20025;-72
2022/09/02 08:35:04;;;;;;;6.50;3.80;;;;;;;22.70;40.40;101610.53;5998320;23;20011;-72
2022/09/02 08:37:32;;;;;;;6.95;3.63;;;;;;;22.60;40.88;101616.09;6005906;23;20041;-71
2022/09/02 08:39:57;;;;;;;13.40;3.80;;;;;;;22.63;41.20;101604.50;6009321;23;20089;-72
2022/09/02 08:42:37;;;;;;;7.88;3.75;;;;;;;22.90;40.41;101606.50;6028813;23;20022;-77
2022/09/02 08:45:18;;;;;;;7.63;3.70;;;;;;;22.71;40.88;101607.84;6016104;23;20018;-77
2022/09/02 08:47:48;;;;;;;7.07;4.22;;;;;;;22.78;40.46;101612.13;6028659;23;20014;-77
2022/09/02 08:50:16;;;;;;;7.72;4.00;;;;;;;22.82;40.39;101607.59;6025258;23;20430;-77
2022/09/02 08:53:08;;;;;;;11.32;4.20;;;;;;;23.02;40.04;101600.88;6030072;23;20485;-78
2022/09/02 08:55:50;;;;;;;21.48;4.82;;;;;;;23.33;39.67;101600.03;6020464;23;20043;-67
2022/09/02 08:58:19;;;;;;;10.60;4.07;;;;;;;23.68;39.76;101589.28;6023058;23;20390;-67
2022/09/02 09:01:13;;;;;;;5.47;3.80;;;;;;;23.15;40.75;101597.88;6046477;23;20018;-68
2022/09/02 09:04:03;;;;;;;7.97;3.70;;;;;;;23.33;40.69;101592.06;6049945;23;20095;-67
2022/09/02 09:06:47;;;;;;;11.90;4.05;;;;;;;23.29;40.41;101593.06;6056442;23;20017;-68
2022/09/02 09:09:44;;;;;;;9.50;4.03;;;;;;;23.73;39.86;101583.81;6045818;23;20018;-66
2022/09/02 09:12:26;;;;;;;10.00;4.00;;;;;;;23.47;40.01;101592.56;6056950;23;20390;-67
2022/09/02 09:15:13;;;;;;;10.45;4.30;;;;;;;23.34;39.71;101593.81;6044792;23;20010;-67
2022/09/02 09:17:50;;;;;;;11.60;3.85;;;;;;;23.43;40.48;101590.88;6060120;23;20058;-72
2022/09/02 09:20:19;;;;;;;8.90;3.78;;;;;;;23.34;41.11;101596.47;6050319;23;20914;-71
2022/09/02 09:22:47;;;;;;;15.30;3.80;;;;;;;23.38;40.56;101590.13;6056321;23;20449;-71
2022/09/02 09:25:14;;;;;;;9.95;4.05;;;;;;;22.89;41.29;101588.81;6038119;23;20861;-70
2022/09/02 09:27:45;;;;;;;9.77;3.83;;;;;;;22.71;41.82;101589.25;6062008;23;20002;-71
2022/09/02 09:30:12;;;;;;;12.45;4.30;;;;;;;22.56;41.92;101590.53;6051375;23;20042;-70
2022/09/02 09:32:53;;;;;;;5.68;3.63;;;;;;;23.01;41.23;101582.28;6050139;23;20477;-71
2022/09/02 09:35:20;;;;;;;9.43;4.00;;;;;;;23.14;41.54;101585.50;6053828;23;20006;-72
2022/09/02 09:37:48;;;;;;;10.43;3.90;;;;;;;22.88;41.59;101596.81;6052958;23;20346;-72
2022/09/02 09:40:20;;;;;;;9.95;3.90;;;;;;;22.87;41.65;101590.63;6052091;23;20010;-78
2022/09/02 09:43:04;;;;;;;10.88;4.43;;;;;;;22.67;42.04;101587.59;6055587;23;20013;-74
2022/09/02 09:45:36;;;;;;;10.48;4.20;;;;;;;22.82;42.07;101581.88;6056096;23;20030;-74
2022/09/02 09:48:05;;;;;;;8.43;4.00;;;;;;;22.83;40.85;101586.31;6056647;23;20069;-74
2022/09/02 09:50:31;;;;;;;8.68;4.40;;;;;;;23.16;41.21;101578.34;6051104;23;20093;-74
2022/09/02 09:53:33;;;;;;;10.10;4.88;;;;;;;23.33;41.52;101581.41;6047263;23;20114;-73
2022/09/02 09:56:05;;;;;;;14.70;4.10;;;;;;;23.40;41.13;101581.19;6048178;23;20010;-74
2022/09/02 09:58:39;;;;;;;10.75;4.05;;;;;;;23.63;40.61;101574.34;6057185;23;20038;-75
2022/09/02 10:01:35;;;;;;;12.13;3.90;;;;;;;24.06;39.57;101572.13;6041919;23;20006;-74
2022/09/02 10:04:11;;;;;;;7.38;4.00;;;;;;;24.60;38.97;101571.28;6042236;23;20018;-74
2022/09/02 10:06:43;;;;;;;11.57;4.00;;;;;;;25.23;38.12;101565.56;6058311;23;20501;-74
2022/09/02 10:09:17;;;;;;;10.45;3.80;;;;;;;26.10;37.40;101568.47;6040140;23;20407;-74
2022/09/02 10:12:03;;;;;;;9.05;3.65;;;;;;;25.97;37.59;101567.22;6058303;23;20022;-73
2022/09/02 10:14:46;;;;;;;11.57;4.35;;;;;;;26.21;36.60;101568.03;6051572;23;20018;-73
2022/09/02 10:17:26;;;;;;;17.20;4.60;;;;;;;26.08;36.85;101572.13;6048858;23;20010;-73
2022/09/02 10:20:27;;;;;;;13.05;4.30;;;;;;;25.66;37.15;101564.84;6052955;23;20097;-73
2022/09/02 10:23:03;;;;;;;16.40;5.18;;;;;;;25.92;36.67;101563.84;6052503;23;20037;-73
2022/09/02 10:26:03;;;;;;;11.77;4.57;;;;;;;25.55;37.78;101555.47;6049030;23;20461;-74
2022/09/02 10:28:53;;;;;;;8.32;4.70;;;;;;;25.62;38.00;101557.88;6054768;23;20034;-74
2022/09/02 10:31:58;;;;;;;12.10;4.80;;;;;;;25.46;37.74;101552.22;6050647;23;20037;-73
2022/09/02 10:34:50;;;;;;;14.35;4.70;;;;;;;25.59;38.49;101547.31;6044251;23;20038;-73
2022/09/02 10:37:34;;;;;;;11.27;4.20;;;;;;;26.12;37.67;101547.00;6048093;23;20046;-74
2022/09/02 10:40:02;;;;;;;;;;;;;;;25.89;37.39;101547.94;6051932;23;20006;-74
2022/09/02 10:42:53;;;;;;;10.43;4.78;;;;;;;26.34;36.96;101542.56;6056085;23;19950;-74
2022/09/02 10:45:39;;;;;;;11.88;4.85;;;;;;;25.75;37.32;101543.13;6052651;23;20018;-72
2022/09/02 10:48:45;;;;;;;13.63;4.63;;;;;;;26.27;37.26;101542.88;6054259;23;20088;-74
2022/09/02 10:51:22;;;;;;;6.25;4.13;;;;;;;26.57;37.10;101537.13;6051270;23;20585;-74
2022/09/02 10:54:09;;;;;;;12.07;5.25;;;;;;;26.49;36.56;101539.25;6058533;23;20002;-75
2022/09/02 10:56:44;;;;;;;6.82;4.22;;;;;;;26.88;36.40;101526.00;6049736;23;20081;-78
2022/09/02 10:59:34;;;;;;;8.15;4.20;;;;;;;27.12;36.98;101528.53;6044654;23;20018;-71
2022/09/02 11:02:12;;;;;;;7.80;4.60;;;;;;;26.54;36.72;101528.34;6045517;23;20572;-76
2022/09/02 11:04:46;;;;;;;13.27;4.57;;;;;;;26.88;37.01;101522.41;6050348;23;20007;-72
2022/09/02 11:07:28;;;;;;;7.65;4.38;;;;;;;27.18;37.36;101528.25;6039438;23;20074;-74
2022/09/02 11:10:09;;;;;;;8.50;4.93;;;;;;;26.62;36.77;101528.91;6051547;23;20018;-73
2022/09/02 11:12:53;;;;;;;12.55;4.90;;;;;;;27.15;35.29;101509.63;6051879;23;20186;-73
2022/09/02 11:15:38;;;;;;;11.13;5.03;;;;;;;26.60;36.77;101512.03;6042667;23;20041;-72
2022/09/02 11:18:16;;;;;;;8.45;4.70;;;;;;;26.91;37.56;101508.94;6055269;23;20016;-74
2022/09/02 11:20:55;;;;;;;7.45;4.88;;;;;;;26.50;36.39;101510.69;6049844;23;20032;-74
2022/09/02 11:23:37;;;;;;;6.70;4.35;;;;;;;27.07;35.84;101498.41;6051550;23;20112;-76
2022/09/02 11:26:10;;;;;;;9.10;4.55;;;;;;;27.23;35.44;101496.78;6053739;23;20046;-74
2022/09/02 11:29:06;;;;;;;9.90;4.65;;;;;;;27.04;35.42;101488.72;6057560;23;20421;-73
2022/09/02 11:31:39;;;;;;;7.13;3.75;;;;;;;27.63;35.85;101487.78;6054225;23;20011;-75
2022/09/02 11:34:18;;;;;;;;;;;;;;;27.62;35.36;101486.91;6051319;23;20015;-75
2022/09/02 11:36:44;;;;;;;8.40;5.18;;;;;;;27.13;34.79;101482.97;6054416;23;19909;-74
2022/09/02 11:39:17;;;;;;;8.00;4.13;;;;;;;27.42;35.66;101482.47;6040269;23;20465;-73
2022/09/02 11:42:09;;;;;;;5.88;4.00;;;;;;;27.55;34.44;101480.13;6055072;23;20383;-74
2022/09/02 11:45:27;;;;;;;8.38;3.78;;;;;;;27.84;34.04;101476.03;6047125;23;20050;-74
2022/09/02 11:48:28;;;;;;;9.52;3.92;;;;;;;27.40;33.72;101470.94;6043082;23;20017;-81
2022/09/02 11:51:15;;;;;;;12.05;4.25;;;;;;;27.15;34.43;101475.69;6038301;23;20043;-75
2022/09/02 11:53:44;;;;;;;6.68;4.15;;;;;;;27.25;34.61;101478.84;6048175;23;20030;-74
2022/09/02 11:56:29;;;;;;;5.68;3.90;;;;;;;26.86;34.90;101474.31;6045758;23;20029;-74
2022/09/02 11:58:55;;;;;;;10.07;3.80;;;;;;;27.24;34.58;101469.06;6044476;23;20046;-73
2022/09/02 12:01:22;;;;;;;11.63;4.68;;;;;;;27.12;33.99;101459.81;6043434;23;20026;-73
2022/09/02 12:03:55;;;;;;;8.50;4.20;;;;;;;27.17;34.17;101463.13;6050848;23;20028;-71
2022/09/02 12:06:21;;;;;;;11.27;4.20;;;;;;;27.32;33.53;101461.56;6053168;23;20018;-73
2022/09/02 12:08:48;;;;;;;8.88;3.97;;;;;;;27.63;34.22;101452.97;6047701;23;20010;-75
2022/09/02 12:11:40;;;;;;;6.40;4.22;;;;;;;26.93;35.39;101457.09;6045230;23;20487;-74
2022/09/02 12:14:10;;;;;;;8.13;3.75;;;;;;;27.19;34.79;101457.72;6051700;23;20516;-74
2022/09/02 12:16:41;;;;;;;8.95;3.97;;;;;;;27.17;33.54;101460.44;6054485;23;20002;-74
2022/09/02 12:19:09;;;;;;;8.48;3.70;;;;;;;27.30;34.49;101450.03;6043458;23;20081;-75
2022/09/02 12:21:37;;;;;;;8.50;3.85;;;;;;;26.70;34.02;101456.34;6055510;23;20010;-74
2022/09/02 12:24:09;;;;;;;4.65;3.50;;;;;;;27.03;34.50;101453.03;6055873;23;20456;-74
2022/09/02 12:26:34;;;;;;;10.13;3.67;;;;;;;27.55;33.79;101450.66;6049010;23;20009;-74
2022/09/02 12:29:29;;;;;;;10.25;3.67;;;;;;;27.34;33.58;101456.97;6041066;23;20010;-76
2022/09/02 12:32:00;;;;;;;4.93;3.10;;;;;;;27.31;32.50;101447.28;6057660;23;20010;-70
2022/09/02 12:34:27;;;;;;;6.85;3.22;;;;;;;27.08;31.62;101441.28;6052737;23;20021;-74
2022/09/02 12:36:55;;;;;;;7.07;3.30;;;;;;;27.15;30.88;101438.22;6047773;23;20348;-72
2022/09/02 12:39:24;;;;;;;6.43;2.95;;;;;;;27.40;30.54;101436.13;6049230;23;20122;-71
2022/09/02 12:42:00;;;;;;;4.82;2.72;;;;;;;27.80;30.18;101439.63;6053731;23;20014;-73
2022/09/02 12:44:44;;;;;;;6.18;2.97;;;;;;;27.42;29.72;101433.41;6047825;23;20014;-71
2022/09/02 12:47:18;;;;;;;4.53;2.80;;;;;;;27.62;29.57;101427.13;6041991;23;20481;-73
2022/09/02 12:50:41;;;;;;;4.60;2.72;;;;;;;27.60;29.08;101420.97;6051827;23;20021;-74
2022/09/02 12:53:31;;;;;;;6.55;2.95;;;;;;;27.79;29.12;101416.44;6010978;23;20015;-73
2022/09/02 12:56:03;;;;;;;9.93;2.90;;;;;;;27.15;28.46;101427.53;6021180;23;20421;-73
2022/09/02 12:58:44;;;;;;;7.88;2.83;;;;;;;27.74;29.70;101419.34;6039967;23;20010;-73
2022/09/02 13:01:24;;;;;;;8.13;2.88;;;;;;;27.48;28.54;101424.19;6048409;23;20552;-73
2022/09/02 13:04:01;;;;;;;5.63;2.80;;;;;;;27.70;29.74;101417.75;6048403;23;20018;-74
2022/09/02 13:07:04;;;;;;;4.45;2.83;;;;;;;27.52;28.49;101407.06;6055847;23;20006;-73
2022/09/02 13:10:13;;;;;;;5.75;3.22;;;;;;;27.34;28.85;101404.28;6053176;23;20018;-74
2022/09/02 13:13:14;;;;;;;6.78;3.03;;;;;;;27.56;28.96;101403.31;6058124;23;20015;-74
2022/09/02 13:16:08;;;;;;;6.57;3.03;;;;;;;27.71;28.97;101406.09;6053915;23;20063;-73
2022/09/02 13:18:45;;;;;;;6.10;3.00;;;;;;;27.58;28.98;101396.03;6047609;23;20036;-72
2022/09/02 13:21:26;;;;;;;7.57;2.97;;;;;;;27.27;28.39;101396.63;6041223;23;20208;-73
2022/09/02 13:24:20;;;;;;;5.57;3.30;;;;;;;27.56;28.60;101398.81;6052489;23;20018;-73
2022/09/02 13:26:52;;;;;;;;;;;;;;;27.44;27.87;101400.25;6050485;23;20014;-73
2022/09/02 13:29:39;;;;;;;6.00;2.85;;;;;;;28.17;28.35;101387.75;6047798;23;19913;-73
2022/09/02 13:32:16;;;;;;;6.50;3.63;;;;;;;27.55;28.29;101383.69;6058740;23;20089;-73
2022/09/02 13:35:03;;;;;;;7.47;3.40;;;;;;;27.79;28.76;101395.88;6043721;23;20010;-73
2022/09/02 13:37:35;;;;;;;7.20;3.38;;;;;;;28.20;28.34;101383.06;6055336;23;20010;-75
2022/09/02 13:40:06;;;;;;;6.78;3.40;;;;;;;27.93;28.37;101384.47;6051472;23;20018;-73
2022/09/02 13:42:31;;;;;;;7.10;3.20;;;;;;;28.37;28.89;101379.50;6059552;23;20417;-73
2022/09/02 13:45:14;;;;;;;12.63;3.70;;;;;;;27.60;28.58;101394.16;6048244;23;20002;-72
2022/09/02 13:47:49;;;;;;;9.43;3.40;;;;;;;27.98;27.99;101386.91;6051615;23;20010;-72
2022/09/02 13:50:19;;;;;;;7.97;3.45;;;;;;;27.90;28.01;101379.25;6056466;23;20010;-73
2022/09/02 13:52:51;;;;;;;4.85;3.33;;;;;;;27.98;28.25;101376.19;6049595;23;20052;-73
2022/09/02 13:55:19;;;;;;;7.22;3.50;;;;;;;27.90;28.49;101394.44;6048597;23;20013;-74
2022/09/02 13:57:58;;;;;;;9.90;3.70;;;;;;;27.58;28.61;101370.13;6052049;23;20014;-73
2022/09/02 14:00:28;;;;;;;7.60;3.80;;;;;;;28.14;29.41;101364.63;6054845;23;20014;-74
2022/09/02 14:02:58;;;;;;;4.38;3.08;;;;;;;28.30;29.59;101356.63;6044972;23;20045;-71
2022/09/02 14:05:25;;;;;;;5.40;3.40;;;;;;;28.06;28.81;101364.09;6057039;23;20011;-73
2022/09/02 14:07:54;;;;;;;6.97;3.45;;;;;;;27.74;28.31;101357.72;6052165;23;20002;-73
2022/09/02 14:10:25;;;;;;;9.95;3.78;;;;;;;27.63;28.57;101357.38;6052621;23;20043;-73
2022/09/02 14:12:54;;;;;;;6.40;3.67;;;;;;;27.65;28.38;101363.53;6046298;23;20041;-73
2022/09/02 14:15:27;;;;;;;4.60;3.40;;;;;;;27.98;28.37;101344.88;6049659;23;20937;-73
2022/09/02 14:18:16;;;;;;;9.20;3.13;;;;;;;28.08;28.51;101353.31;6055256;23;20049;-73
2022/09/02 14:21:08;;;;;;;8.95;3.47;;;;;;;28.15;28.95;101357.44;6054234;23;20034;-73
2022/09/02 14:23:37;;;;;;;9.85;3.67;;;;;;;28.35;28.19;101340.31;6055151;23;20021;-74
2022/09/02 14:26:03;;;;;;;5.60;3.20;;;;;;;28.00;28.42;101351.03;6053442;23;20014;-72
2022/09/02 14:28:31;;;;;;;5.82;3.88;;;;;;;27.75;27.87;101351.41;6052388;23;20643;-73
2022/09/02 14:31:05;;;;;;;6.65;3.42;;;;;;;27.74;27.51;101338.97;6047860;23;20017;-73
2022/09/02 14:33:39;;;;;;;10.73;3.60;;;;;;;27.66;27.88;101327.78;6051384;23;20465;-74
2022/09/02 14:36:26;;;;;;;9.00;3.45;;;;;;;27.79;27.79;101334.25;6054621;23;20029;-73
2022/09/02 14:38:54;;;;;;;5.30;3.13;;;;;;;28.41;28.21;101324.78;6048117;23;20012;-73
2022/09/02 14:41:34;;;;;;;5.03;3.10;;;;;;;28.64;26.52;101318.16;6047790;23;20564;-73
2022/09/02 14:44:14;;;;;;;4.88;3.22;;;;;;;27.69;27.24;101326.75;6056567;23;20014;-73
2022/09/02 14:46:51;;;;;;;4.55;3.13;;;;;;;27.88;26.68;101316.81;6048685;23;20029;-75
2022/09/02 14:49:25;;;;;;;8.52;3.20;;;;;;;27.87;27.30;101315.09;6058041;23;20346;-73
2022/09/02 14:52:01;;;;;;;5.65;2.80;;;;;;;28.31;27.53;101314.59;6047119;23;20014;-73
2022/09/02 14:54:48;;;;;;;5.20;3.20;;;;;;;27.70;26.79;101315.06;6056608;23;20009;-73
2022/09/02 14:57:20;;;;;;;17.63;3.70;;;;;;;28.00;27.45;101317.97;6044886;23;20516;-73
2022/09/02 14:59:46;;;;;;;10.77;3.40;;;;;;;27.76;26.97;101310.28;6053742;23;20054;-74
2022/09/02 15:02:42;;;;;;;5.78;3.30;;;;;;;27.74;25.81;101308.63;6057621;23;20465;-74
2022/09/02 15:05:13;;;;;;;6.88;3.20;;;;;;;28.09;26.76;101299.63;6037467;23;20089;-73
2022/09/02 15:07:39;;;;;;;4.30;3.20;;;;;;;27.66;26.59;101300.97;6054752;23;20332;-73
2022/09/02 15:10:08;;;;;;;6.75;3.30;;;;;;;27.71;26.55;101287.34;6051705;23;20105;-74
2022/09/02 15:12:36;;;;;;;3.90;2.90;;;;;;;27.74;26.56;101295.25;6061674;23;20041;-74
2022/09/02 15:15:02;;;;;;;9.30;3.38;;;;;;;27.92;26.66;101298.78;6044047;23;20021;-73
2022/09/02 15:17:29;;;;;;;10.88;3.40;;;;;;;27.74;26.72;101290.75;6053694;23;20002;-72
2022/09/02 15:19:55;;;;;;;3.97;3.13;;;;;;;27.90;26.92;101288.13;6056245;23;20408;-72
2022/09/02 15:22:20;;;;;;;9.15;3.33;;;;;;;27.72;26.68;101289.09;6048951;23;20010;-72
2022/09/02 15:24:48;;;;;;;8.50;3.25;;;;;;;27.65;27.37;101291.19;6052187;23;20462;-72
2022/09/02 15:27:23;;;;;;;7.60;2.92;;;;;;;27.68;27.73;101291.06;6043989;23;20006;-73
2022/09/02 15:29:49;;;;;;;9.55;3.15;;;;;;;27.62;27.29;101285.16;6059287;23;20034;-73
2022/09/02 15:32:14;;;;;;;7.38;3.10;;;;;;;27.94;26.67;101281.66;6066291;23;20007;-74
2022/09/02 15:34:39;;;;;;;5.85;3.13;;;;;;;27.90;26.78;101281.91;6050909;23;20010;-72
2022/09/02 15:37:07;;;;;;;8.18;3.17;;;;;;;27.63;27.54;101278.84;6044116;23;20058;-73
2022/09/02 15:39:32;;;;;;;7.70;3.03;;;;;;;27.46;28.11;101283.19;6054683;23;20014;-72
2022/09/02 15:41:58;;;;;;;5.82;3.10;;;;;;;27.43;28.00;101278.00;6055148;23;20013;-73
2022/09/02 15:44:28;;;;;;;8.07;3.00;;;;;;;27.38;28.02;101276.50;6052248;23;20021;-74
2022/09/02 15:46:54;;;;;;;8.75;3.08;;;;;;;27.70;27.43;101274.88;6042016;23;20011;-73
2022/09/02 15:49:20;;;;;;;7.03;3.10;;;;;;;27.47;28.08;101276.03;6058789;23;20014;-72
2022/09/02 15:51:48;;;;;;;6.63;3.00;;;;;;;27.62;27.82;101280.66;6059201;23;20025;-73
2022/09/02 15:54:18;;;;;;;9.00;3.05;;;;;;;27.56;27.95;101280.97;6062823;23;20010;-73
2022/09/02 15:56:45;;;;;;;12.45;3.40;;;;;;;27.40;28.07;101272.78;6027370;23;20213;-73
2022/09/02 15:59:16;;;;;;;7.15;3.08;;;;;;;27.51;28.62;101268.72;6043766;23;20562;-73
2022/09/02 16:01:44;;;;;;;8.07;3.08;;;;;;;27.30;27.68;101265.31;6057282;23;20445;-74
2022/09/02 16:04:11;;;;;;;9.30;3.25;;;;;;;27.37;27.93;101269.41;6054729;23;20536;-73
2022/09/02 16:06:44;;;;;;;8.15;3.13;;;;;;;27.49;27.46;101259.91;6054012;23;20002;-72
2022/09/02 16:09:12;;;;;;;6.43;3.13;;;;;;;27.63;28.09;101257.41;6046928;23;20002;-73
2022/09/02 16:11:40;;;;;;;7.05;3.20;;;;;;;27.43;27.44;101256.59;6060701;23;20018;-72
2022/09/02 16:14:05;;;;;;;11.20;3.28;;;;;;;27.45;27.65;101256.50;6056387;23;20014;-73
2022/09/02 16:16:31;;;;;;;10.85;3.35;;;;;;;27.38;27.69;101255.09;6054501;23;20101;-73
2022/09/02 16:18:57;;;;;;;6.80;3.00;;;;;;;27.55;28.12;101254.25;6043133;23;20018;-72
2022/09/02 16:21:22;;;;;;;4.38;2.92;;;;;;;27.45;27.53;101249.31;6052643;23;20569;-73
2022/09/02 16:23:48;;;;;;;7.38;2.88;;;;;;;27.50;27.55;101245.56;6052402;23;20017;-74
2022/09/02 16:26:30;;;;;;;7.05;3.00;;;;;;;27.46;27.58;101244.84;6057074;23;20335;-74
2022/09/02 16:29:07;;;;;;;7.70;2.78;;;;;;;27.58;27.55;101238.88;6045933;23;20011;-73
2022/09/02 16:31:36;;;;;;;7.68;3.22;;;;;;;27.43;27.93;101248.56;6054653;23;20485;-73
2022/09/02 16:34:03;;;;;;;6.43;3.30;;;;;;;27.39;27.66;101243.41;6053211;23;20073;-74
2022/09/02 16:36:30;;;;;;;6.53;3.00;;;;;;;27.37;27.76;101243.50;6052919;23;20002;-71
2022/09/02 16:38:56;;;;;;;4.78;3.00;;;;;;;27.55;27.48;101238.19;6044191;23;20053;-73
2022/09/02 16:41:27;;;;;;;5.47;2.90;;;;;;;27.12;27.53;101243.00;6057084;23;20342;-71
2022/09/02 16:43:54;;;;;;;4.82;2.75;;;;;;;27.46;27.24;101235.00;6054250;23;20010;-71
2022/09/02 16:46:20;;;;;;;6.60;3.00;;;;;;;27.21;27.27;101233.63;6045160;23;20461;-71
2022/09/02 16:48:45;;;;;;;5.40;2.70;;;;;;;27.29;27.12;101235.00;6050866;23;20017;-73
2022/09/02 16:51:11;;;;;;;5.13;2.60;;;;;;;27.02;27.45;101231.00;6044462;23;20880;-74
2022/09/02 16:53:36;;;;;;;9.02;2.60;;;;;;;27.24;27.37;101226.31;6046676;23;20891;-74
2022/09/02 16:56:02;;;;;;;4.82;3.05;;;;;;;27.35;27.29;101223.97;6051046;23;20006;-74
2022/09/02 16:58:28;;;;;;;5.90;3.50;;;;;;;27.44;27.51;101223.50;6051541;23;20011;-74
2022/09/02 17:00:54;;;;;;;6.00;2.90;;;;;;;27.60;26.97;101214.72;6047696;23;20014;-73
2022/09/02 17:03:19;;;;;;;4.47;2.92;;;;;;;27.54;27.78;101217.69;6043707;23;21166;-72
2022/09/02 17:05:47;;;;;;;3.53;2.80;;;;;;;27.45;27.55;101210.97;6054214;23;20036;-77
2022/09/02 17:08:12;;;;;;;6.88;2.85;;;;;;;27.36;27.62;101223.03;6052368;23;20006;-73
2022/09/02 17:10:38;;;;;;;4.13;3.08;;;;;;;27.33;27.57;101217.81;6050514;23;20006;-72
2022/09/02 17:13:03;;;;;;;6.88;3.10;;;;;;;27.34;28.23;101216.88;6050902;23;20002;-75
2022/09/02 17:15:29;;;;;;;4.28;2.90;;;;;;;27.51;28.18;101213.34;6052294;23;20747;-74
2022/09/02 17:17:55;;;;;;;8.43;3.78;;;;;;;27.16;28.63;101216.94;6058648;23;20037;-77
2022/09/02 17:20:22;;;;;;;5.78;3.47;;;;;;;27.09;29.19;101218.19;6050695;23;20492;-76
2022/09/02 17:22:47;;;;;;;5.93;2.92;;;;;;;26.65;29.49;101210.50;6048227;23;20014;-75
2022/09/02 17:25:14;;;;;;;4.88;2.90;;;;;;;26.78;29.72;101216.97;6043897;23;20018;-75
2022/09/02 17:27:40;;;;;;;6.30;2.80;;;;;;;26.97;29.71;101209.81;6056401;23;20025;-77
2022/09/02 17:30:07;;;;;;;5.38;2.90;;;;;;;26.70;29.74;101211.16;6055526;23;20010;-75
2022/09/02 17:32:32;;;;;;;5.90;3.10;;;;;;;26.74;30.21;101215.41;6053956;23;20010;-77
2022/09/02 17:35:00;;;;;;;11.90;3.38;;;;;;;26.85;30.14;101210.38;6046371;23;20454;-75
2022/09/02 17:37:26;;;;;;;8.85;3.05;;;;;;;26.76;30.25;101213.53;6054964;23;20014;-75
2022/09/02 17:39:51;;;;;;;9.70;3.70;;;;;;;26.91;30.20;101206.56;6044051;23;20122;-75
2022/09/02 17:42:22;;;;;;;5.10;2.97;;;;;;;26.46;30.57;101217.66;6055912;23;20390;-74
2022/09/02 17:44:48;;;;;;;4.95;3.00;;;;;;;26.76;30.52;101216.19;6057992;23;20092;-75
2022/09/02 17:47:21;;;;;;;4.47;3.10;;;;;;;26.64;30.34;101214.13;6044754;23;20481;-74
2022/09/02 17:49:47;;;;;;;5.47;3.05;;;;;;;26.48;30.66;101213.09;6055177;23;20010;-75
2022/09/02 17:52:19;;;;;;;4.55;3.15;;;;;;;26.75;30.34;101216.25;6044772;23;20122;-75
2022/09/02 17:54:50;;;;;;;5.40;3.50;;;;;;;26.58;30.58;101211.72;6056448;23;20018;-75
2022/09/02 17:57:22;;;;;;;6.22;3.30;;;;;;;26.27;31.47;101216.78;6047056;23;20437;-75
2022/09/02 18:00:08;;;;;;;5.90;3.38;;;;;;;26.05;31.79;101212.38;6056011;23;20335;-77
2022/09/02 18:03:07;;;;;;;5.70;3.10;;;;;;;25.86;31.38;101215.00;6059371;23;20006;-75
2022/09/02 18:05:53;;;;;;;5.25;3.28;;;;;;;26.11;31.23;101216.56;6054577;23;20006;-80
2022/09/02 18:08:35;;;;;;;5.60;3.25;;;;;;;25.96;31.90;101210.13;6060879;23;20174;-76
2022/09/02 18:11:03;;;;;;;5.25;3.20;;;;;;;26.03;31.47;101216.06;6036657;23;20461;-74
2022/09/02 18:13:55;;;;;;;5.35;3.03;;;;;;;26.00;31.54;101216.19;6053727;23;20021;-78
2022/09/02 18:16:53;;;;;;;4.32;2.92;;;;;;;25.82;32.05;101210.72;6046943;23;20750;-76
2022/09/02 18:19:54;;;;;;;10.13;3.10;;;;;;;25.79;32.34;101210.88;6051685;23;20006;-75
2022/09/02 18:22:52;;;;;;;6.22;3.20;;;;;;;25.45;32.75;101200.75;6039905;23;20525;-74
2022/09/02 18:25:38;;;;;;;4.28;3.08;;;;;;;25.69;32.25;101201.53;6050359;23;20509;-75
2022/09/02 18:28:41;;;;;;;6.28;3.20;;;;;;;25.76;32.20;101203.00;6037314;23;20010;-74
2022/09/02 18:31:26;;;;;;;8.45;3.10;;;;;;;25.46;32.91;101207.84;6045221;23;20410;-76
2022/09/02 18:34:16;;;;;;;6.20;3.10;;;;;;;25.45;33.49;101205.22;6052677;23;20065;-75
2022/09/02 18:36:45;;;;;;;4.82;3.17;;;;;;;25.35;33.32;101211.91;6057781;23;20014;-76
2022/09/02 18:39:33;;;;;;;5.40;3.10;;;;;;;25.25;33.60;101211.41;6041964;23;20093;-75
2022/09/02 18:42:13;;;;;;;4.75;3.13;;;;;;;25.27;33.20;101211.34;6052683;23;20006;-76
2022/09/02 18:45:05;;;;;;;5.78;3.47;;;;;;;24.79;33.40;101222.19;6054666;23;20020;-75
2022/09/02 18:47:43;;;;;;;6.43;3.42;;;;;;;25.15;33.37;101217.19;6050353;23;20891;-75
2022/09/02 18:50:19;;;;;;;7.10;3.28;;;;;;;24.94;33.61;101214.50;6055560;23;20017;-74
2022/09/02 18:52:53;;;;;;;6.85;3.42;;;;;;;24.72;34.13;101221.56;6052463;23;20129;-75
2022/09/02 18:55:32;;;;;;;7.22;3.40;;;;;;;24.68;34.47;101222.63;6050162;23;20119;-74
2022/09/02 18:58:35;;;;;;;7.28;3.83;;;;;;;24.76;34.57;101225.88;6048340;23;20018;-73
2022/09/02 19:01:06;;;;;;;9.57;3.78;;;;;;;24.56;34.58;101221.31;6015856;23;20646;-75
2022/09/02 19:03:34;;;;;;;5.13;3.10;;;;;;;24.50;34.79;101215.34;6047735;23;20422;-73
2022/09/02 19:06:03;;;;;;;8.13;3.50;;;;;;;24.53;34.93;101221.41;6051893;23;20010;-72
2022/09/02 19:08:32;;;;;;;6.63;3.50;;;;;;;24.27;35.31;101224.22;6052978;23;20014;-72
2022/09/02 19:11:14;;;;;;;5.43;3.42;;;;;;;24.48;34.83;101238.53;6041162;23;20006;-73
2022/09/02 19:13:46;;;;;;;6.70;3.63;;;;;;;24.45;35.51;101228.88;6053670;23;20801;-73
2022/09/02 19:16:18;;;;;;;9.98;3.60;;;;;;;24.36;34.91;101233.66;6048788;23;20481;-73
2022/09/02 19:18:47;;;;;;;6.15;3.40;;;;;;;24.44;34.98;101231.59;6042402;23;20014;-72
2022/09/02 19:21:32;;;;;;;4.80;3.50;;;;;;;24.26;34.99;101238.47;6044197;23;20018;-72
2022/09/02 19:23:58;;;;;;;;;;;;;;;24.09;35.43;101236.38;6056393;23;20014;-74
2022/09/02 19:26:24;;;;;;;8.00;4.13;;;;;;;24.00;35.70;101231.41;6048553;23;19940;-74
2022/09/02 19:28:55;;;;;;;9.70;3.70;;;;;;;24.08;35.56;101237.34;6039351;23;20010;-71
2022/09/02 19:31:25;;;;;;;8.10;3.65;;;;;;;24.01;36.68;101242.94;6052414;23;20814;-72
2022/09/02 19:33:56;;;;;;;8.95;3.90;;;;;;;23.95;36.66;101235.16;6045198;23;20014;-73
2022/09/02 19:36:25;;;;;;;6.25;3.67;;;;;;;23.87;36.36;101235.44;6053931;23;20017;-72
2022/09/02 19:38:51;;;;;;;8.05;3.60;;;;;;;24.01;35.50;101237.59;6045760;23;20077;-74
2022/09/02 19:41:16;;;;;;;10.18;4.43;;;;;;;23.76;36.92;101230.50;6046534;23;20570;-73
2022/09/02 19:43:42;;;;;;;5.15;3.80;;;;;;;24.00;36.33;101233.19;6047516;23;20011;-72
2022/09/02 19:46:09;;;;;;;6.85;4.18;;;;;;;23.80;36.61;101225.91;6047245;23;20017;-73
2022/09/02 19:48:38;;;;;;;9.73;4.22;;;;;;;23.72;36.54;101231.53;6053496;23;20002;-73
2022/09/02 19:51:10;;;;;;;7.35;3.95;;;;;;;23.83;36.40;101236.47;6041101;23;20033;-77
2022/09/02 19:53:37;;;;;;;7.95;4.22;;;;;;;23.84;36.69;101246.22;6054215;23;20006;-74
2022/09/02 19:56:05;;;;;;;10.82;3.97;;;;;;;23.70;36.96;101240.50;6055452;23;20081;-75
2022/09/02 19:58:31;;;;;;;7.38;3.70;;;;;;;23.74;37.27;101242.09;6044913;23;20028;-74
2022/09/02 20:00:58;;;;;;;11.00;3.70;;;;;;;23.80;37.31;101236.56;6041919;23;20469;-73